sensor_id;sensor_type;location;lat;lon;timestamp;temperature;humidity
44647;DHT22;56315;-33.902;151.160;2023-02-28T00:01:32;27.60;99.90
44647;DHT22;56315;-33.902;151.160;2023-02-28T00:04:00;27.50;99.90
44647;DHT22;56315;-33.902;151.160;2023-02-28T00:06:28;27.40;99.90
44647;DHT22;56315;-33.902;151.160;2023-02-28T00:08:55;27.20;99.90
44647;DHT22;56315;-33.902;151.160;2023-02-28T00:11:23;27.00;99.90
44647;DHT22;56315;-33.902;151.160;2023-02-28T00:13:50;26.80;99.90
44647;DHT22;56315;-33.902;151.160;2023-02-28T00:16:21;26.70;99.90
44647;DHT22;56315;-33.902;151.160;2023-02-28T00:18:49;26.70;99.90
44647;DHT22;56315;-33.902;151.160;2023-02-28T00:21:18;26.60;99.90
44647;DHT22;56315;-33.902;151.160;2023-02-28T00:23:45;26.50;99.90
44647;DHT22;56315;-33.902;151.160;2023-02-28T00:26:13;26.40;99.90
44647;DHT22;56315;-33.902;151.160;2023-02-28T00:28:40;26.30;99.90
44647;DHT22;56315;-33.902;151.160;2023-02-28T00:31:07;26.30;99.90
44647;DHT22;56315;-33.902;151.160;2023-02-28T00:33:34;26.30;99.90
44647;DHT22;56315;-33.902;151.160;2023-02-28T00:36:04;26.30;99.90
44647;DHT22;56315;-33.902;151.160;2023-02-28T00:38:32;26.20;99.90
44647;DHT22;56315;-33.902;151.160;2023-02-28T00:40:59;26.10;99.90
44647;DHT22;56315;-33.902;151.160;2023-02-28T00:43:35;26.10;99.90
44647;DHT22;56315;-33.902;151.160;2023-02-28T00:46:03;26.00;99.90
44647;DHT22;56315;-33.902;151.160;2023-02-28T00:48:31;26.10;99.90
44647;DHT22;56315;-33.902;151.160;2023-02-28T00:50:58;26.10;99.90
44647;DHT22;56315;-33.902;151.160;2023-02-28T00:53:26;26.10;99.90
44647;DHT22;56315;-33.902;151.160;2023-02-28T00:55:53;26.20;99.90
44647;DHT22;56315;-33.902;151.160;2023-02-28T00:58:21;26.20;99.90
44647;DHT22;56315;-33.902;151.160;2023-02-28T01:00:48;26.30;99.90
44647;DHT22;56315;-33.902;151.160;2023-02-28T01:03:17;26.40;99.90
44647;DHT22;56315;-33.902;151.160;2023-02-28T01:05:45;26.60;99.90
44647;DHT22;56315;-33.902;151.160;2023-02-28T01:08:13;26.80;99.90
44647;DHT22;56315;-33.902;151.160;2023-02-28T01:10:41;26.80;99.90
44647;DHT22;56315;-33.902;151.160;2023-02-28T01:13:08;27.00;99.90
44647;DHT22;56315;-33.902;151.160;2023-02-28T01:15:36;27.20;99.90
44647;DHT22;56315;-33.902;151.160;2023-02-28T01:18:03;27.40;99.90
44647;DHT22;56315;-33.902;151.160;2023-02-28T01:20:31;27.50;99.90
44647;DHT22;56315;-33.902;151.160;2023-02-28T01:22:58;27.50;99.90
44647;DHT22;56315;-33.902;151.160;2023-02-28T01:25:25;27.80;99.90
44647;DHT22;56315;-33.902;151.160;2023-02-28T01:27:53;28.00;99.90
44647;DHT22;56315;-33.902;151.160;2023-02-28T01:30:20;28.20;99.90
44647;DHT22;56315;-33.902;151.160;2023-02-28T01:32:47;28.40;99.90
44647;DHT22;56315;-33.902;151.160;2023-02-28T01:35:15;28.60;99.90
44647;DHT22;56315;-33.902;151.160;2023-02-28T01:37:42;29.00;99.90
44647;DHT22;56315;-33.902;151.160;2023-02-28T01:40:09;29.40;99.90
44647;DHT22;56315;-33.902;151.160;2023-02-28T01:42:37;29.80;99.90
44647;DHT22;56315;-33.902;151.160;2023-02-28T01:45:17;30.00;99.90
44647;DHT22;56315;-33.902;151.160;2023-02-28T01:47:45;30.10;99.90
44647;DHT22;56315;-33.902;151.160;2023-02-28T01:50:22;30.10;99.90
44647;DHT22;56315;-33.902;151.160;2023-02-28T01:52:50;30.30;99.90
44647;DHT22;56315;-33.902;151.160;2023-02-28T01:55:21;30.40;99.90
44647;DHT22;56315;-33.902;151.160;2023-02-28T01:57:56;30.50;99.90
44647;DHT22;56315;-33.902;151.160;2023-02-28T02:00:25;30.70;99.90
44647;DHT22;56315;-33.902;151.160;2023-02-28T02:03:04;30.70;99.90
44647;DHT22;56315;-33.902;151.160;2023-02-28T02:05:32;30.80;99.90
44647;DHT22;56315;-33.902;151.160;2023-02-28T02:08:06;30.80;99.90
44647;DHT22;56315;-33.902;151.160;2023-02-28T02:10:43;30.40;99.90
44647;DHT22;56315;-33.902;151.160;2023-02-28T02:26:37;29.50;99.90
44647;DHT22;56315;-33.902;151.160;2023-02-28T02:37:42;29.50;99.90
44647;DHT22;56315;-33.902;151.160;2023-02-28T02:40:28;29.50;99.90
44647;DHT22;56315;-33.902;151.160;2023-02-28T02:43:03;29.30;99.90
44647;DHT22;56315;-33.902;151.160;2023-02-28T02:45:39;29.20;99.90
44647;DHT22;56315;-33.902;151.160;2023-02-28T02:48:16;29.10;99.90
44647;DHT22;56315;-33.902;151.160;2023-02-28T02:50:48;29.00;99.90
44647;DHT22;56315;-33.902;151.160;2023-02-28T02:53:18;29.00;99.90
44647;DHT22;56315;-33.902;151.160;2023-02-28T02:55:50;29.00;99.90
44647;DHT22;56315;-33.902;151.160;2023-02-28T02:58:26;29.10;99.90
44647;DHT22;56315;-33.902;151.160;2023-02-28T03:00:57;29.10;99.90
44647;DHT22;56315;-33.902;151.160;2023-02-28T03:03:25;29.10;99.90
44647;DHT22;56315;-33.902;151.160;2023-02-28T03:06:12;29.00;99.90
44647;DHT22;56315;-33.902;151.160;2023-02-28T03:08:39;28.90;99.90
44647;DHT22;56315;-33.902;151.160;2023-02-28T03:11:12;29.00;99.90
44647;DHT22;56315;-33.902;151.160;2023-02-28T03:28:08;29.70;99.90
44647;DHT22;56315;-33.902;151.160;2023-02-28T03:33:19;29.60;99.90
44647;DHT22;56315;-33.902;151.160;2023-02-28T03:36:04;29.50;99.90
44647;DHT22;56315;-33.902;151.160;2023-02-28T03:44:08;29.30;99.90
44647;DHT22;56315;-33.902;151.160;2023-02-28T03:46:50;29.20;99.90
44647;DHT22;56315;-33.902;151.160;2023-02-28T03:49:27;29.10;99.90
44647;DHT22;56315;-33.902;151.160;2023-02-28T03:51:57;29.10;99.90
44647;DHT22;56315;-33.902;151.160;2023-02-28T03:54:32;29.10;99.90
44647;DHT22;56315;-33.902;151.160;2023-02-28T03:59:44;28.90;99.90
44647;DHT22;56315;-33.902;151.160;2023-02-28T04:02:13;28.90;99.90
44647;DHT22;56315;-33.902;151.160;2023-02-28T04:04:40;28.60;99.90
44647;DHT22;56315;-33.902;151.160;2023-02-28T04:07:12;28.60;99.90
44647;DHT22;56315;-33.902;151.160;2023-02-28T04:09:39;28.60;99.90
44647;DHT22;56315;-33.902;151.160;2023-02-28T04:12:06;28.70;99.90
44647;DHT22;56315;-33.902;151.160;2023-02-28T04:14:34;28.90;99.90
44647;DHT22;56315;-33.902;151.160;2023-02-28T04:17:01;28.90;99.90
44647;DHT22;56315;-33.902;151.160;2023-02-28T04:19:28;29.00;99.90
44647;DHT22;56315;-33.902;151.160;2023-02-28T04:21:56;29.10;99.90
44647;DHT22;56315;-33.902;151.160;2023-02-28T04:24:27;29.10;99.90
44647;DHT22;56315;-33.902;151.160;2023-02-28T04:26:56;29.20;99.90
44647;DHT22;56315;-33.902;151.160;2023-02-28T04:29:31;29.10;99.90
44647;DHT22;56315;-33.902;151.160;2023-02-28T04:32:00;28.80;99.90
44647;DHT22;56315;-33.902;151.160;2023-02-28T04:34:29;28.70;99.90
44647;DHT22;56315;-33.902;151.160;2023-02-28T04:36:57;28.40;99.90
44647;DHT22;56315;-33.902;151.160;2023-02-28T04:39:24;28.30;99.90
44647;DHT22;56315;-33.902;151.160;2023-02-28T04:41:52;28.30;99.90
44647;DHT22;56315;-33.902;151.160;2023-02-28T04:44:19;28.10;99.90
44647;DHT22;56315;-33.902;151.160;2023-02-28T04:46:48;28.00;99.90
44647;DHT22;56315;-33.902;151.160;2023-02-28T04:49:16;27.90;99.90
44647;DHT22;56315;-33.902;151.160;2023-02-28T04:51:44;28.00;99.90
44647;DHT22;56315;-33.902;151.160;2023-02-28T04:54:11;27.90;99.90
44647;DHT22;56315;-33.902;151.160;2023-02-28T04:56:39;27.90;99.90
44647;DHT22;56315;-33.902;151.160;2023-02-28T04:59:06;28.00;99.90
44647;DHT22;56315;-33.902;151.160;2023-02-28T05:01:34;28.00;99.90
44647;DHT22;56315;-33.902;151.160;2023-02-28T05:04:03;28.00;99.90
44647;DHT22;56315;-33.902;151.160;2023-02-28T05:06:32;28.00;99.90
44647;DHT22;56315;-33.902;151.160;2023-02-28T05:09:00;28.10;99.90
44647;DHT22;56315;-33.902;151.160;2023-02-28T05:11:32;28.00;99.90
44647;DHT22;56315;-33.902;151.160;2023-02-28T05:14:05;27.90;99.90
44647;DHT22;56315;-33.902;151.160;2023-02-28T05:16:32;27.70;99.90
44647;DHT22;56315;-33.902;151.160;2023-02-28T05:19:00;27.60;99.90
44647;DHT22;56315;-33.902;151.160;2023-02-28T05:21:39;27.60;99.90
44647;DHT22;56315;-33.902;151.160;2023-02-28T05:24:11;27.50;99.90
44647;DHT22;56315;-33.902;151.160;2023-02-28T05:26:40;27.40;99.90
44647;DHT22;56315;-33.902;151.160;2023-02-28T05:29:08;27.30;99.90
44647;DHT22;56315;-33.902;151.160;2023-02-28T05:31:36;27.30;99.90
44647;DHT22;56315;-33.902;151.160;2023-02-28T05:34:03;27.30;99.90
44647;DHT22;56315;-33.902;151.160;2023-02-28T05:36:33;27.30;99.90
44647;DHT22;56315;-33.902;151.160;2023-02-28T05:39:04;27.20;99.90
44647;DHT22;56315;-33.902;151.160;2023-02-28T05:41:32;27.20;99.90
44647;DHT22;56315;-33.902;151.160;2023-02-28T05:43:59;27.20;99.90
44647;DHT22;56315;-33.902;151.160;2023-02-28T05:46:27;27.30;99.90
44647;DHT22;56315;-33.902;151.160;2023-02-28T05:48:54;27.30;99.90
44647;DHT22;56315;-33.902;151.160;2023-02-28T05:51:24;27.20;99.90
44647;DHT22;56315;-33.902;151.160;2023-02-28T05:53:51;27.20;99.90
44647;DHT22;56315;-33.902;151.160;2023-02-28T05:56:18;27.10;99.90
44647;DHT22;56315;-33.902;151.160;2023-02-28T05:58:45;27.10;99.90
44647;DHT22;56315;-33.902;151.160;2023-02-28T06:04:00;27.00;99.90
44647;DHT22;56315;-33.902;151.160;2023-02-28T06:06:29;27.00;99.90
44647;DHT22;56315;-33.902;151.160;2023-02-28T06:08:57;26.90;99.90
44647;DHT22;56315;-33.902;151.160;2023-02-28T06:11:24;26.80;99.90
44647;DHT22;56315;-33.902;151.160;2023-02-28T06:13:56;26.70;99.90
44647;DHT22;56315;-33.902;151.160;2023-02-28T06:16:24;26.70;99.90
44647;DHT22;56315;-33.902;151.160;2023-02-28T06:18:51;26.60;99.90
44647;DHT22;56315;-33.902;151.160;2023-02-28T06:21:22;26.50;99.90
44647;DHT22;56315;-33.902;151.160;2023-02-28T06:23:50;26.40;99.90
44647;DHT22;56315;-33.902;151.160;2023-02-28T06:26:18;26.40;99.90
44647;DHT22;56315;-33.902;151.160;2023-02-28T06:28:45;26.40;99.90
44647;DHT22;56315;-33.902;151.160;2023-02-28T06:31:15;26.50;99.90
44647;DHT22;56315;-33.902;151.160;2023-02-28T06:33:44;26.50;99.90
44647;DHT22;56315;-33.902;151.160;2023-02-28T06:36:13;26.50;99.90
44647;DHT22;56315;-33.902;151.160;2023-02-28T06:38:41;26.50;99.90
44647;DHT22;56315;-33.902;151.160;2023-02-28T06:41:09;26.50;99.90
44647;DHT22;56315;-33.902;151.160;2023-02-28T06:43:41;26.50;99.90
44647;DHT22;56315;-33.902;151.160;2023-02-28T06:46:11;26.30;99.90
44647;DHT22;56315;-33.902;151.160;2023-02-28T06:48:40;26.20;99.90
44647;DHT22;56315;-33.902;151.160;2023-02-28T06:51:17;26.10;99.90
44647;DHT22;56315;-33.902;151.160;2023-02-28T06:53:47;26.00;99.90
44647;DHT22;56315;-33.902;151.160;2023-02-28T06:56:16;25.90;99.90
44647;DHT22;56315;-33.902;151.160;2023-02-28T06:58:47;25.90;99.90
44647;DHT22;56315;-33.902;151.160;2023-02-28T07:01:15;25.90;99.90
44647;DHT22;56315;-33.902;151.160;2023-02-28T07:03:42;25.90;99.90
44647;DHT22;56315;-33.902;151.160;2023-02-28T07:06:09;25.70;99.90
44647;DHT22;56315;-33.902;151.160;2023-02-28T07:08:37;25.70;99.90
44647;DHT22;56315;-33.902;151.160;2023-02-28T07:11:06;25.70;99.90
44647;DHT22;56315;-33.902;151.160;2023-02-28T07:13:33;25.70;99.90
44647;DHT22;56315;-33.902;151.160;2023-02-28T07:16:03;25.70;99.90
44647;DHT22;56315;-33.902;151.160;2023-02-28T07:18:31;25.70;99.90
44647;DHT22;56315;-33.902;151.160;2023-02-28T07:21:01;25.70;99.90
44647;DHT22;56315;-33.902;151.160;2023-02-28T07:23:28;25.60;99.90
44647;DHT22;56315;-33.902;151.160;2023-02-28T07:25:55;25.60;99.90
44647;DHT22;56315;-33.902;151.160;2023-02-28T07:28:23;25.60;99.90
44647;DHT22;56315;-33.902;151.160;2023-02-28T07:30:50;25.50;99.90
44647;DHT22;56315;-33.902;151.160;2023-02-28T07:33:18;25.50;99.90
44647;DHT22;56315;-33.902;151.160;2023-02-28T07:35:45;25.40;99.90
44647;DHT22;56315;-33.902;151.160;2023-02-28T07:38:12;25.30;99.90
44647;DHT22;56315;-33.902;151.160;2023-02-28T07:40:40;25.20;99.90
44647;DHT22;56315;-33.902;151.160;2023-02-28T07:43:07;25.20;99.90
44647;DHT22;56315;-33.902;151.160;2023-02-28T07:45:34;25.10;99.90
44647;DHT22;56315;-33.902;151.160;2023-02-28T07:48:02;25.10;99.90
44647;DHT22;56315;-33.902;151.160;2023-02-28T07:50:29;25.00;99.90
44647;DHT22;56315;-33.902;151.160;2023-02-28T07:52:58;24.90;99.90
44647;DHT22;56315;-33.902;151.160;2023-02-28T07:55:26;24.90;99.90
44647;DHT22;56315;-33.902;151.160;2023-02-28T07:57:53;24.80;99.90
44647;DHT22;56315;-33.902;151.160;2023-02-28T08:00:20;24.80;99.90
44647;DHT22;56315;-33.902;151.160;2023-02-28T08:02:48;24.70;99.90
44647;DHT22;56315;-33.902;151.160;2023-02-28T08:05:15;24.70;99.90
44647;DHT22;56315;-33.902;151.160;2023-02-28T08:07:42;24.70;99.90
44647;DHT22;56315;-33.902;151.160;2023-02-28T08:10:10;24.60;99.90
44647;DHT22;56315;-33.902;151.160;2023-02-28T08:12:37;24.60;99.90
44647;DHT22;56315;-33.902;151.160;2023-02-28T08:15:05;24.50;99.90
44647;DHT22;56315;-33.902;151.160;2023-02-28T08:17:32;24.50;99.90
44647;DHT22;56315;-33.902;151.160;2023-02-28T08:20:00;24.50;99.90
44647;DHT22;56315;-33.902;151.160;2023-02-28T08:22:27;24.30;99.90
44647;DHT22;56315;-33.902;151.160;2023-02-28T08:24:54;24.40;99.90
44647;DHT22;56315;-33.902;151.160;2023-02-28T08:27:21;24.30;99.90
44647;DHT22;56315;-33.902;151.160;2023-02-28T08:29:49;24.30;99.90
44647;DHT22;56315;-33.902;151.160;2023-02-28T08:32:16;24.30;99.90
44647;DHT22;56315;-33.902;151.160;2023-02-28T08:34:43;24.20;99.90
44647;DHT22;56315;-33.902;151.160;2023-02-28T08:37:11;24.20;99.90
44647;DHT22;56315;-33.902;151.160;2023-02-28T08:39:38;24.10;99.90
44647;DHT22;56315;-33.902;151.160;2023-02-28T08:42:05;24.10;99.90
44647;DHT22;56315;-33.902;151.160;2023-02-28T08:44:33;24.10;99.90
44647;DHT22;56315;-33.902;151.160;2023-02-28T08:47:00;24.10;99.90
44647;DHT22;56315;-33.902;151.160;2023-02-28T08:49:27;24.10;99.90
44647;DHT22;56315;-33.902;151.160;2023-02-28T08:51:57;24.00;99.90
44647;DHT22;56315;-33.902;151.160;2023-02-28T08:54:25;24.00;99.90
44647;DHT22;56315;-33.902;151.160;2023-02-28T08:56:52;24.00;99.90
44647;DHT22;56315;-33.902;151.160;2023-02-28T08:59:19;24.00;99.90
44647;DHT22;56315;-33.902;151.160;2023-02-28T09:01:47;23.90;99.90
44647;DHT22;56315;-33.902;151.160;2023-02-28T09:04:14;23.90;99.90
44647;DHT22;56315;-33.902;151.160;2023-02-28T09:06:41;23.90;99.90
44647;DHT22;56315;-33.902;151.160;2023-02-28T09:09:08;23.90;99.90
44647;DHT22;56315;-33.902;151.160;2023-02-28T09:11:36;23.90;99.90
44647;DHT22;56315;-33.902;151.160;2023-02-28T09:14:03;23.90;99.90
44647;DHT22;56315;-33.902;151.160;2023-02-28T09:16:32;23.80;99.90
44647;DHT22;56315;-33.902;151.160;2023-02-28T09:18:59;23.90;99.90
44647;DHT22;56315;-33.902;151.160;2023-02-28T09:21:27;23.90;99.90
44647;DHT22;56315;-33.902;151.160;2023-02-28T09:23:54;23.90;99.90
44647;DHT22;56315;-33.902;151.160;2023-02-28T09:26:25;23.90;99.90
44647;DHT22;56315;-33.902;151.160;2023-02-28T09:28:55;23.90;99.90
44647;DHT22;56315;-33.902;151.160;2023-02-28T09:31:25;23.90;99.90
44647;DHT22;56315;-33.902;151.160;2023-02-28T09:33:57;24.00;99.90
44647;DHT22;56315;-33.902;151.160;2023-02-28T09:36:26;24.00;99.90
44647;DHT22;56315;-33.902;151.160;2023-02-28T09:38:54;24.00;99.90
44647;DHT22;56315;-33.902;151.160;2023-02-28T09:41:41;24.00;99.90
44647;DHT22;56315;-33.902;151.160;2023-02-28T09:44:37;24.00;99.90
44647;DHT22;56315;-33.902;151.160;2023-02-28T09:47:32;24.00;99.90
44647;DHT22;56315;-33.902;151.160;2023-02-28T09:50:33;24.00;99.90
44647;DHT22;56315;-33.902;151.160;2023-02-28T09:53:37;24.10;99.90
44647;DHT22;56315;-33.902;151.160;2023-02-28T09:56:09;24.10;99.90
44647;DHT22;56315;-33.902;151.160;2023-02-28T10:01:18;24.10;99.90
44647;DHT22;56315;-33.902;151.160;2023-02-28T10:04:00;24.10;99.90
44647;DHT22;56315;-33.902;151.160;2023-02-28T10:06:37;24.20;99.90
44647;DHT22;56315;-33.902;151.160;2023-02-28T10:11:52;24.20;99.90
44647;DHT22;56315;-33.902;151.160;2023-02-28T10:14:24;24.20;99.90
44647;DHT22;56315;-33.902;151.160;2023-02-28T10:17:13;24.30;99.90
44647;DHT22;56315;-33.902;151.160;2023-02-28T10:23:17;24.20;99.90
44647;DHT22;56315;-33.902;151.160;2023-02-28T10:28:46;24.20;99.90
44647;DHT22;56315;-33.902;151.160;2023-02-28T10:31:19;24.20;99.90
44647;DHT22;56315;-33.902;151.160;2023-02-28T10:33:47;24.20;99.90
44647;DHT22;56315;-33.902;151.160;2023-02-28T10:36:17;24.20;99.90
44647;DHT22;56315;-33.902;151.160;2023-02-28T10:38:47;24.30;99.90
44647;DHT22;56315;-33.902;151.160;2023-02-28T10:41:17;24.30;99.90
44647;DHT22;56315;-33.902;151.160;2023-02-28T10:46:43;24.30;99.90
44647;DHT22;56315;-33.902;151.160;2023-02-28T10:51:42;24.30;99.90
44647;DHT22;56315;-33.902;151.160;2023-02-28T10:54:23;24.30;99.90
44647;DHT22;56315;-33.902;151.160;2023-02-28T10:57:20;24.30;99.90
44647;DHT22;56315;-33.902;151.160;2023-02-28T11:00:14;24.30;99.90
44647;DHT22;56315;-33.902;151.160;2023-02-28T11:02:41;24.30;99.90
44647;DHT22;56315;-33.902;151.160;2023-02-28T11:05:33;24.30;99.90
44647;DHT22;56315;-33.902;151.160;2023-02-28T11:08:27;24.30;99.90
44647;DHT22;56315;-33.902;151.160;2023-02-28T11:10:57;24.30;99.90
44647;DHT22;56315;-33.902;151.160;2023-02-28T11:13:34;24.30;99.90
44647;DHT22;56315;-33.902;151.160;2023-02-28T11:16:10;24.30;99.90
44647;DHT22;56315;-33.902;151.160;2023-02-28T11:18:51;24.20;99.90
44647;DHT22;56315;-33.902;151.160;2023-02-28T11:21:29;24.30;99.90
44647;DHT22;56315;-33.902;151.160;2023-02-28T11:24:06;24.30;99.90
44647;DHT22;56315;-33.902;151.160;2023-02-28T11:26:45;24.30;99.90
44647;DHT22;56315;-33.902;151.160;2023-02-28T11:29:24;24.30;99.90
44647;DHT22;56315;-33.902;151.160;2023-02-28T11:34:43;24.40;99.90
44647;DHT22;56315;-33.902;151.160;2023-02-28T11:37:16;24.30;99.90
44647;DHT22;56315;-33.902;151.160;2023-02-28T11:39:44;24.30;99.90
44647;DHT22;56315;-33.902;151.160;2023-02-28T11:42:43;24.30;99.90
44647;DHT22;56315;-33.902;151.160;2023-02-28T12:04:48;24.10;99.90
44647;DHT22;56315;-33.902;151.160;2023-02-28T12:07:35;24.10;99.90
44647;DHT22;56315;-33.902;151.160;2023-02-28T12:19:01;24.10;99.90
44647;DHT22;56315;-33.902;151.160;2023-02-28T12:34:46;24.00;99.90
44647;DHT22;56315;-33.902;151.160;2023-02-28T12:37:21;24.00;99.90
44647;DHT22;56315;-33.902;151.160;2023-02-28T12:39:54;24.00;99.90
44647;DHT22;56315;-33.902;151.160;2023-02-28T12:42:36;24.00;99.90
44647;DHT22;56315;-33.902;151.160;2023-02-28T12:47:41;24.00;99.90
44647;DHT22;56315;-33.902;151.160;2023-02-28T12:50:12;24.00;99.90
44647;DHT22;56315;-33.902;151.160;2023-02-28T12:53:07;24.00;99.90
44647;DHT22;56315;-33.902;151.160;2023-02-28T12:55:50;24.10;99.90
44647;DHT22;56315;-33.902;151.160;2023-02-28T12:58:30;24.00;99.90
44647;DHT22;56315;-33.902;151.160;2023-02-28T13:06:44;24.10;99.90
44647;DHT22;56315;-33.902;151.160;2023-02-28T13:09:17;24.10;99.90
44647;DHT22;56315;-33.902;151.160;2023-02-28T13:11:48;24.20;99.90
44647;DHT22;56315;-33.902;151.160;2023-02-28T13:19:27;24.20;99.90
44647;DHT22;56315;-33.902;151.160;2023-02-28T13:21:56;24.30;99.90
44647;DHT22;56315;-33.902;151.160;2023-02-28T13:29:42;24.30;99.90
44647;DHT22;56315;-33.902;151.160;2023-02-28T13:35:12;24.30;99.90
44647;DHT22;56315;-33.902;151.160;2023-02-28T13:37:42;24.30;99.90
44647;DHT22;56315;-33.902;151.160;2023-02-28T13:42:48;24.30;99.90
44647;DHT22;56315;-33.902;151.160;2023-02-28T13:45:27;24.30;99.90
44647;DHT22;56315;-33.902;151.160;2023-02-28T13:48:16;24.30;99.90
44647;DHT22;56315;-33.902;151.160;2023-02-28T13:50:45;24.30;99.90
44647;DHT22;56315;-33.902;151.160;2023-02-28T13:55:58;24.30;99.90
44647;DHT22;56315;-33.902;151.160;2023-02-28T14:06:31;24.30;99.90
44647;DHT22;56315;-33.902;151.160;2023-02-28T14:15:04;24.30;99.90
44647;DHT22;56315;-33.902;151.160;2023-02-28T14:17:54;24.30;99.90
44647;DHT22;56315;-33.902;151.160;2023-02-28T14:20:26;24.40;99.90
44647;DHT22;56315;-33.902;151.160;2023-02-28T14:31:29;24.40;99.90
44647;DHT22;56315;-33.902;151.160;2023-02-28T14:34:24;24.40;99.90
44647;DHT22;56315;-33.902;151.160;2023-02-28T14:36:54;24.40;99.90
44647;DHT22;56315;-33.902;151.160;2023-02-28T14:39:26;24.40;99.90
44647;DHT22;56315;-33.902;151.160;2023-02-28T14:41:57;24.40;99.90
44647;DHT22;56315;-33.902;151.160;2023-02-28T14:44:31;24.40;99.90
44647;DHT22;56315;-33.902;151.160;2023-02-28T14:47:03;24.40;99.90
44647;DHT22;56315;-33.902;151.160;2023-02-28T14:49:44;24.40;99.90
44647;DHT22;56315;-33.902;151.160;2023-02-28T14:52:21;24.40;99.90
44647;DHT22;56315;-33.902;151.160;2023-02-28T14:55:11;24.50;99.90
44647;DHT22;56315;-33.902;151.160;2023-02-28T14:58:00;24.40;99.90
44647;DHT22;56315;-33.902;151.160;2023-02-28T15:00:40;24.40;99.90
44647;DHT22;56315;-33.902;151.160;2023-02-28T15:03:22;24.40;99.90
44647;DHT22;56315;-33.902;151.160;2023-02-28T15:06:14;24.40;99.90
44647;DHT22;56315;-33.902;151.160;2023-02-28T15:08:44;24.40;99.90
44647;DHT22;56315;-33.902;151.160;2023-02-28T15:11:19;24.40;99.90
44647;DHT22;56315;-33.902;151.160;2023-02-28T15:13:54;24.40;99.90
44647;DHT22;56315;-33.902;151.160;2023-02-28T15:16:30;24.40;99.90
44647;DHT22;56315;-33.902;151.160;2023-02-28T15:18:59;24.40;99.90
44647;DHT22;56315;-33.902;151.160;2023-02-28T15:21:30;24.30;99.90
44647;DHT22;56315;-33.902;151.160;2023-02-28T15:24:04;24.30;99.90
44647;DHT22;56315;-33.902;151.160;2023-02-28T15:26:39;24.30;99.90
44647;DHT22;56315;-33.902;151.160;2023-02-28T15:29:16;24.30;99.90
44647;DHT22;56315;-33.902;151.160;2023-02-28T15:31:47;24.30;99.90
44647;DHT22;56315;-33.902;151.160;2023-02-28T15:34:44;24.30;99.90
44647;DHT22;56315;-33.902;151.160;2023-02-28T15:40:23;24.30;99.90
44647;DHT22;56315;-33.902;151.160;2023-02-28T15:43:15;24.30;99.90
44647;DHT22;56315;-33.902;151.160;2023-02-28T15:46:05;24.30;99.90
44647;DHT22;56315;-33.902;151.160;2023-02-28T15:51:24;24.30;99.90
44647;DHT22;56315;-33.902;151.160;2023-02-28T15:53:58;24.30;99.90
44647;DHT22;56315;-33.902;151.160;2023-02-28T15:56:43;24.30;99.90
44647;DHT22;56315;-33.902;151.160;2023-02-28T15:59:30;24.30;99.90
44647;DHT22;56315;-33.902;151.160;2023-02-28T16:04:53;24.30;99.90
44647;DHT22;56315;-33.902;151.160;2023-02-28T16:07:21;24.30;99.90
44647;DHT22;56315;-33.902;151.160;2023-02-28T16:09:48;24.30;99.90
44647;DHT22;56315;-33.902;151.160;2023-02-28T16:12:15;24.30;99.90
44647;DHT22;56315;-33.902;151.160;2023-02-28T16:14:43;24.30;99.90
44647;DHT22;56315;-33.902;151.160;2023-02-28T16:17:23;24.30;99.90
44647;DHT22;56315;-33.902;151.160;2023-02-28T16:19:51;24.30;99.90
44647;DHT22;56315;-33.902;151.160;2023-02-28T16:22:18;24.30;99.90
44647;DHT22;56315;-33.902;151.160;2023-02-28T16:24:45;24.30;99.90
44647;DHT22;56315;-33.902;151.160;2023-02-28T16:27:33;24.30;99.90
44647;DHT22;56315;-33.902;151.160;2023-02-28T16:30:04;24.30;99.90
44647;DHT22;56315;-33.902;151.160;2023-02-28T16:32:35;24.30;99.90
44647;DHT22;56315;-33.902;151.160;2023-02-28T16:35:05;24.30;99.90
44647;DHT22;56315;-33.902;151.160;2023-02-28T16:37:32;24.30;99.90
44647;DHT22;56315;-33.902;151.160;2023-02-28T16:40:00;24.30;99.90
44647;DHT22;56315;-33.902;151.160;2023-02-28T16:42:28;24.30;99.90
44647;DHT22;56315;-33.902;151.160;2023-02-28T16:44:56;24.30;99.90
44647;DHT22;56315;-33.902;151.160;2023-02-28T16:47:24;24.30;99.90
44647;DHT22;56315;-33.902;151.160;2023-02-28T16:49:53;24.30;99.90
44647;DHT22;56315;-33.902;151.160;2023-02-28T16:52:20;24.30;99.90
44647;DHT22;56315;-33.902;151.160;2023-02-28T16:54:47;24.30;99.90
44647;DHT22;56315;-33.902;151.160;2023-02-28T16:57:21;24.30;99.90
44647;DHT22;56315;-33.902;151.160;2023-02-28T16:59:50;24.30;99.90
44647;DHT22;56315;-33.902;151.160;2023-02-28T17:02:18;24.30;99.90
44647;DHT22;56315;-33.902;151.160;2023-02-28T17:04:48;24.30;99.90
44647;DHT22;56315;-33.902;151.160;2023-02-28T17:07:16;24.30;99.90
44647;DHT22;56315;-33.902;151.160;2023-02-28T17:09:44;24.30;99.90
44647;DHT22;56315;-33.902;151.160;2023-02-28T17:12:12;24.30;99.90
44647;DHT22;56315;-33.902;151.160;2023-02-28T17:14:39;24.30;99.90
44647;DHT22;56315;-33.902;151.160;2023-02-28T17:17:07;24.30;99.90
44647;DHT22;56315;-33.902;151.160;2023-02-28T17:19:35;24.20;99.90
44647;DHT22;56315;-33.902;151.160;2023-02-28T17:22:04;24.20;99.90
44647;DHT22;56315;-33.902;151.160;2023-02-28T17:24:31;24.20;99.90
44647;DHT22;56315;-33.902;151.160;2023-02-28T17:26:58;24.10;99.90
44647;DHT22;56315;-33.902;151.160;2023-02-28T17:29:26;24.10;99.90
44647;DHT22;56315;-33.902;151.160;2023-02-28T17:31:53;24.10;99.90
44647;DHT22;56315;-33.902;151.160;2023-02-28T17:34:20;24.10;99.90
44647;DHT22;56315;-33.902;151.160;2023-02-28T17:36:50;24.00;99.90
44647;DHT22;56315;-33.902;151.160;2023-02-28T17:39:19;24.00;99.90
44647;DHT22;56315;-33.902;151.160;2023-02-28T17:41:56;24.00;99.90
44647;DHT22;56315;-33.902;151.160;2023-02-28T17:44:24;23.90;99.90
44647;DHT22;56315;-33.902;151.160;2023-02-28T17:46:53;23.80;99.90
44647;DHT22;56315;-33.902;151.160;2023-02-28T17:49:21;23.80;99.90
44647;DHT22;56315;-33.902;151.160;2023-02-28T17:51:48;23.70;99.90
44647;DHT22;56315;-33.902;151.160;2023-02-28T17:54:17;23.60;99.90
44647;DHT22;56315;-33.902;151.160;2023-02-28T17:56:44;23.60;99.90
44647;DHT22;56315;-33.902;151.160;2023-02-28T17:59:12;23.50;99.90
44647;DHT22;56315;-33.902;151.160;2023-02-28T18:01:39;23.40;99.90
44647;DHT22;56315;-33.902;151.160;2023-02-28T18:04:07;23.30;99.90